Las Vegas, Nevada
Traffic Map
Current Weather Conditions
Las Vegas, Nevada
Broken Clouds
Broken Clouds
28°
Feels Like: 28°
Wind Chill: 28° Ceiling: 10000
Heat Index: 28° Visibility: 10mi
Dew Point: 16° Wind: 5mph
Humidity: 47% Direction: 220° (SW)
Pressure: 29.77in Gusts: 0mph
Raw Report DataKLAS 181456Z 22004KT 10SM BKN100 28/16 A2977 RMK AO2 SLP054 T02780156 52009
Traffic Incident Summary
Active as of:
Severity:
Category:
InformationThere was an issue retrieving the traffic information for this location. Please try a different location or try again shortly.
Advertisements
Track Severe Weather on mobile